Time;durP1;ratioP1;P1;durP2;ratioP2;P2;SDS_P1;SDS_P2;PMS_P1;PMS_P2;Temp;Humidity;BMP_temperature;BMP_pressure;BME280_temperature;BME280_humidity;BME280_pressure;Samples;Min_cycle;Max_cycle;Signal;HPM_P1;HPM_P2
2024/01/28 00:00:58;;;;;;;70.20;22.47;;;;;;;;;;5081500;28;20024;-72
2024/01/28 00:03:23;;;;;;;59.07;22.93;;;;;;;;;;5085470;28;20420;-72
2024/01/28 00:05:51;;;;;;;66.67;24.67;;;;;;;;;;5078081;28;20021;-72
2024/01/28 00:08:17;;;;;;;59.70;24.07;;;;;;;;;;5085818;28;20032;-71
2024/01/28 00:10:42;;;;;;;63.83;24.90;;;;;;;;;;5088237;28;20039;-72
2024/01/28 00:13:08;;;;;;;59.47;22.67;;;;;;;;;;5087885;28;20024;-72
2024/01/28 00:15:33;;;;;;;75.43;23.43;;;;;;;;;;5087026;28;20519;-72
2024/01/28 00:17:58;;;;;;;66.37;24.30;;;;;;;;;;5090627;28;20038;-72
2024/01/28 00:20:23;;;;;;;64.93;24.30;;;;;;;;;;5087541;28;20020;-72
2024/01/28 00:22:49;;;;;;;71.73;25.27;;;;;;;;;;5088325;28;20020;-72
2024/01/28 00:25:14;;;;;;;73.50;25.23;;;;;;;;;;5084259;28;20488;-72
2024/01/28 00:27:40;;;;;;;66.77;24.30;;;;;;;;;;5086039;28;20020;-72
2024/01/28 00:30:05;;;;;;;79.10;26.50;;;;;;;;;;5090736;28;20055;-71
2024/01/28 00:32:30;;;;;;;71.27;24.73;;;;;;;;;;5089255;28;20066;-70
2024/01/28 00:34:56;;;;;;;66.60;25.83;;;;;;;;;;5091743;28;20019;-72
2024/01/28 00:37:21;;;;;;;66.57;25.83;;;;;;;;;;5081874;28;20020;-71
2024/01/28 00:39:47;;;;;;;69.67;24.83;;;;;;;;;;5082597;28;20062;-72
2024/01/28 00:42:12;;;;;;;70.23;25.73;;;;;;;;;;5091166;28;20016;-72
2024/01/28 00:44:37;;;;;;;73.27;26.30;;;;;;;;;;5087461;28;20016;-72
2024/01/28 00:47:03;;;;;;;71.10;27.27;;;;;;;;;;5088687;28;20027;-72
2024/01/28 00:49:31;;;;;;;65.57;25.63;;;;;;;;;;5083157;28;20024;-71
2024/01/28 00:51:56;;;;;;;66.93;24.97;;;;;;;;;;5077375;28;20112;-72
2024/01/28 00:54:22;;;;;;;62.67;23.10;;;;;;;;;;5088778;28;20462;-72
2024/01/28 00:56:48;;;;;;;64.67;24.30;;;;;;;;;;5086671;28;20028;-63
2024/01/28 00:59:13;;;;;;;74.60;25.33;;;;;;;;;;5085648;28;20419;-64
2024/01/28 01:01:39;;;;;;;72.07;25.77;;;;;;;;;;5083525;28;20376;-63
2024/01/28 01:04:05;;;;;;;76.10;25.33;;;;;;;;;;5081208;28;20056;-63
2024/01/28 01:06:30;;;;;;;57.90;23.73;;;;;;;;;;5086719;28;20500;-63
2024/01/28 01:08:55;;;;;;;66.40;24.20;;;;;;;;;;5084802;28;20050;-63
2024/01/28 01:11:21;;;;;;;70.77;24.90;;;;;;;;;;5085443;28;20032;-64
2024/01/28 01:13:46;;;;;;;65.60;24.77;;;;;;;;;;5088660;28;20036;-64
2024/01/28 01:16:11;;;;;;;68.40;24.33;;;;;;;;;;5084984;28;20039;-62
2024/01/28 01:18:36;;;;;;;64.23;23.63;;;;;;;;;;5086505;28;20024;-64
2024/01/28 01:21:02;;;;;;;63.30;24.03;;;;;;;;;;5086957;28;20024;-63
2024/01/28 01:23:27;;;;;;;77.53;24.67;;;;;;;;;;5089406;28;20035;-63
2024/01/28 01:25:52;;;;;;;66.37;24.23;;;;;;;;;;5085511;28;20023;-63
2024/01/28 01:28:17;;;;;;;65.57;25.13;;;;;;;;;;5087658;28;20039;-63
2024/01/28 01:30:43;;;;;;;64.80;25.57;;;;;;;;;;5089349;28;20391;-63
2024/01/28 01:33:08;;;;;;;63.77;25.43;;;;;;;;;;5086292;28;20027;-63
2024/01/28 01:35:33;;;;;;;74.23;25.60;;;;;;;;;;5080410;28;20090;-63
2024/01/28 01:37:58;;;;;;;65.93;25.13;;;;;;;;;;5085594;28;20849;-62
2024/01/28 01:40:24;;;;;;;74.10;27.33;;;;;;;;;;5088549;28;20553;-64
2024/01/28 01:42:49;;;;;;;82.97;28.13;;;;;;;;;;5089819;28;20055;-63
2024/01/28 01:45:15;;;;;;;68.07;26.30;;;;;;;;;;5085915;28;20024;-63
2024/01/28 01:47:41;;;;;;;70.50;27.20;;;;;;;;;;5076818;28;20028;-62
2024/01/28 01:50:08;;;;;;;70.93;27.40;;;;;;;;;;5080038;28;20024;-63
2024/01/28 01:52:33;;;;;;;69.37;25.23;;;;;;;;;;5089593;28;20436;-63
2024/01/28 01:54:59;;;;;;;70.57;26.43;;;;;;;;;;5087752;28;20052;-63
2024/01/28 01:57:25;;;;;;;70.17;26.07;;;;;;;;;;5082446;28;20019;-62
2024/01/28 01:59:50;;;;;;;79.60;27.97;;;;;;;;;;5078522;28;20523;-63
2024/01/28 02:02:16;;;;;;;87.90;28.37;;;;;;;;;;5080622;28;20377;-62
2024/01/28 02:04:43;;;;;;;90.03;28.93;;;;;;;;;;5084723;28;20066;-63
2024/01/28 02:07:09;;;;;;;78.27;28.33;;;;;;;;;;5083903;28;20016;-64
2024/01/28 02:09:34;;;;;;;78.43;30.43;;;;;;;;;;5085859;28;20065;-63
2024/01/28 02:12:00;;;;;;;90.83;29.67;;;;;;;;;;5087112;28;20371;-62
2024/01/28 02:14:28;;;;;;;75.93;28.30;;;;;;;;;;5086265;28;20081;-63
2024/01/28 02:16:54;;;;;;;68.93;29.00;;;;;;;;;;5085319;28;20427;-63
2024/01/28 02:19:19;;;;;;;84.77;30.27;;;;;;;;;;5084986;28;20102;-64
2024/01/28 02:21:45;;;;;;;84.73;29.97;;;;;;;;;;5085983;28;20028;-62
2024/01/28 02:24:13;;;;;;;76.57;30.30;;;;;;;;;;5085387;28;20024;-64
2024/01/28 02:26:38;;;;;;;86.40;29.53;;;;;;;;;;5088108;28;20123;-63
2024/01/28 02:29:04;;;;;;;88.13;29.77;;;;;;;;;;5086625;28;20449;-62
2024/01/28 02:31:29;;;;;;;86.50;31.03;;;;;;;;;;5084368;28;20654;-63
2024/01/28 02:33:54;;;;;;;80.07;30.67;;;;;;;;;;5086381;28;20039;-63
2024/01/28 02:36:19;;;;;;;95.37;32.17;;;;;;;;;;5084756;28;20012;-63
2024/01/28 02:38:45;;;;;;;81.57;29.20;;;;;;;;;;5086970;28;20546;-64
2024/01/28 02:41:10;;;;;;;88.17;31.50;;;;;;;;;;5086574;28;20055;-63
2024/01/28 02:43:35;;;;;;;72.80;30.20;;;;;;;;;;5082973;28;20531;-62
2024/01/28 02:46:00;;;;;;;82.10;31.47;;;;;;;;;;5076359;28;20032;-63
2024/01/28 02:48:26;;;;;;;84.80;30.00;;;;;;;;;;5086219;28;20077;-63
2024/01/28 02:50:51;;;;;;;71.47;24.97;;;;;;;;;;5088013;28;20063;-62
2024/01/28 02:53:16;;;;;;;77.70;27.30;;;;;;;;;;5085816;28;20035;-64
2024/01/28 02:55:42;;;;;;;72.30;28.53;;;;;;;;;;5076317;28;20024;-63
2024/01/28 02:58:08;;;;;;;79.10;29.23;;;;;;;;;;5074699;28;20062;-63
2024/01/28 03:00:35;;;;;;;70.03;28.30;;;;;;;;;;5086599;28;20107;-63
2024/01/28 03:03:01;;;;;;;72.87;28.70;;;;;;;;;;5087763;28;20024;-63
2024/01/28 03:05:26;;;;;;;78.07;28.70;;;;;;;;;;5086615;28;20160;-63
2024/01/28 03:07:51;;;;;;;76.90;26.40;;;;;;;;;;5080725;28;20032;-63
2024/01/28 03:10:17;;;;;;;71.77;26.57;;;;;;;;;;5080821;28;20031;-63
2024/01/28 03:12:42;;;;;;;57.77;25.30;;;;;;;;;;5087307;28;20032;-64
2024/01/28 03:15:09;;;;;;;68.03;28.10;;;;;;;;;;5084382;28;20052;-64
2024/01/28 03:17:34;;;;;;;75.33;28.93;;;;;;;;;;5084501;28;20016;-64
2024/01/28 03:20:00;;;;;;;71.37;28.17;;;;;;;;;;5083842;28;20047;-63
2024/01/28 03:22:25;;;;;;;68.83;27.57;;;;;;;;;;5083620;28;20499;-62
2024/01/28 03:24:51;;;;;;;63.37;25.87;;;;;;;;;;5086027;28;20105;-63
2024/01/28 03:27:16;;;;;;;69.47;27.13;;;;;;;;;;5084714;28;20020;-63
2024/01/28 03:29:42;;;;;;;69.23;29.23;;;;;;;;;;5086093;28;20722;-63
2024/01/28 03:32:07;;;;;;;73.07;27.93;;;;;;;;;;5084583;28;20012;-63
2024/01/28 03:34:33;;;;;;;73.40;27.37;;;;;;;;;;5083986;28;20081;-63
2024/01/28 03:36:58;;;;;;;72.23;26.10;;;;;;;;;;5084533;28;20017;-64
2024/01/28 03:39:24;;;;;;;66.93;25.43;;;;;;;;;;5084501;28;20035;-63
2024/01/28 03:41:49;;;;;;;55.87;22.90;;;;;;;;;;5081365;28;20430;-63
2024/01/28 03:44:19;;;;;;;64.07;24.50;;;;;;;;;;5083865;28;20107;-64
2024/01/28 03:46:44;;;;;;;63.90;23.97;;;;;;;;;;5089927;28;20029;-63
2024/01/28 03:49:10;;;;;;;74.17;25.97;;;;;;;;;;5089078;28;20082;-63
2024/01/28 03:51:35;;;;;;;73.37;25.80;;;;;;;;;;5088796;28;20038;-62
2024/01/28 03:54:01;;;;;;;65.20;24.23;;;;;;;;;;5081481;28;20039;-64
2024/01/28 03:56:26;;;;;;;68.70;25.03;;;;;;;;;;5080920;28;20031;-65
2024/01/28 03:58:51;;;;;;;65.40;24.17;;;;;;;;;;5091606;28;20047;-64
2024/01/28 04:01:16;;;;;;;60.73;23.07;;;;;;;;;;5091049;28;20062;-64
2024/01/28 04:03:42;;;;;;;64.13;24.50;;;;;;;;;;5087050;28;20452;-63
2024/01/28 04:06:07;;;;;;;54.97;20.83;;;;;;;;;;5079472;28;20107;-63
2024/01/28 04:08:32;;;;;;;57.40;22.33;;;;;;;;;;5083619;28;20039;-63
2024/01/28 04:10:57;;;;;;;53.93;22.17;;;;;;;;;;5091667;28;20126;-63
2024/01/28 04:13:23;;;;;;;55.67;19.93;;;;;;;;;;5089160;28;20024;-64
2024/01/28 04:15:48;;;;;;;62.70;21.00;;;;;;;;;;5087058;28;20044;-63
2024/01/28 04:18:13;;;;;;;44.50;18.67;;;;;;;;;;5084077;28;20023;-63
2024/01/28 04:20:38;;;;;;;53.67;19.37;;;;;;;;;;5088932;28;20099;-63
2024/01/28 04:23:04;;;;;;;54.47;18.33;;;;;;;;;;5089373;28;20016;-63
2024/01/28 04:25:29;;;;;;;59.73;19.93;;;;;;;;;;5088168;28;20460;-64
2024/01/28 04:27:55;;;;;;;51.63;20.27;;;;;;;;;;5088142;28;20024;-63
2024/01/28 04:30:20;;;;;;;51.30;19.93;;;;;;;;;;5087863;28;20029;-64
2024/01/28 04:32:45;;;;;;;47.10;18.47;;;;;;;;;;5090702;28;20085;-63
2024/01/28 04:35:12;;;;;;;55.17;18.93;;;;;;;;;;5087947;28;20054;-64
2024/01/28 04:37:37;;;;;;;45.67;18.03;;;;;;;;;;5088252;28;20491;-63
2024/01/28 04:40:04;;;;;;;47.33;18.40;;;;;;;;;;5088846;28;20024;-63
2024/01/28 04:42:29;;;;;;;52.00;19.17;;;;;;;;;;5083737;28;20465;-63
2024/01/28 04:44:54;;;;;;;61.67;20.87;;;;;;;;;;5087919;28;20024;-63
2024/01/28 04:47:20;;;;;;;43.57;17.83;;;;;;;;;;5085588;28;20008;-63
2024/01/28 04:49:45;;;;;;;42.80;16.20;;;;;;;;;;5086470;28;20036;-64
2024/01/28 04:52:10;;;;;;;44.13;17.70;;;;;;;;;;5083171;28;20024;-63
2024/01/28 04:54:36;;;;;;;35.63;15.00;;;;;;;;;;5083657;28;20027;-62
2024/01/28 04:57:01;;;;;;;26.70;10.50;;;;;;;;;;5088326;28;20020;-63
2024/01/28 04:59:27;;;;;;;28.33;11.77;;;;;;;;;;5087147;28;20025;-63
2024/01/28 05:01:52;;;;;;;25.27;11.23;;;;;;;;;;5084294;28;20011;-64
2024/01/28 05:04:18;;;;;;;30.20;12.90;;;;;;;;;;5081277;28;20045;-63
2024/01/28 05:06:43;;;;;;;24.17;10.47;;;;;;;;;;5085812;28;20036;-64
2024/01/28 05:09:10;;;;;;;24.30;11.27;;;;;;;;;;5088007;28;20020;-63
2024/01/28 05:11:35;;;;;;;29.13;12.70;;;;;;;;;;5088111;28;20039;-63
2024/01/28 05:14:01;;;;;;;26.80;13.40;;;;;;;;;;5079969;28;20529;-63
2024/01/28 05:16:27;;;;;;;36.30;13.50;;;;;;;;;;5077143;28;20020;-63
2024/01/28 05:18:52;;;;;;;35.60;14.73;;;;;;;;;;5087288;28;20016;-63
2024/01/28 05:21:20;;;;;;;26.80;12.70;;;;;;;;;;5089521;28;20027;-63
2024/01/28 05:23:46;;;;;;;32.63;12.50;;;;;;;;;;5086816;28;20044;-63
2024/01/28 05:26:11;;;;;;;25.00;10.93;;;;;;;;;;5081260;28;20488;-63
2024/01/28 05:28:36;;;;;;;24.93;11.00;;;;;;;;;;5088670;28;20027;-63
2024/01/28 05:31:02;;;;;;;26.03;11.60;;;;;;;;;;5089103;28;20040;-63
2024/01/28 05:33:28;;;;;;;31.27;12.13;;;;;;;;;;5086100;28;20016;-63
2024/01/28 05:35:53;;;;;;;21.40;9.03;;;;;;;;;;5086805;28;20028;-63
2024/01/28 05:38:18;;;;;;;30.13;12.97;;;;;;;;;;5088608;28;20032;-64
2024/01/28 05:40:44;;;;;;;18.37;9.07;;;;;;;;;;5086284;28;20024;-63
2024/01/28 05:43:09;;;;;;;18.53;8.97;;;;;;;;;;5086767;28;20019;-63
2024/01/28 05:45:34;;;;;;;22.67;9.73;;;;;;;;;;5081004;28;20039;-63
2024/01/28 05:48:02;;;;;;;22.53;9.37;;;;;;;;;;5088385;28;20016;-63
2024/01/28 05:50:29;;;;;;;17.93;7.80;;;;;;;;;;5085911;28;20423;-63
2024/01/28 05:52:54;;;;;;;21.10;7.67;;;;;;;;;;5084237;28;20036;-63
2024/01/28 05:55:19;;;;;;;21.90;7.93;;;;;;;;;;5071571;28;20021;-64
2024/01/28 05:57:44;;;;;;;24.43;9.40;;;;;;;;;;5082663;28;20073;-63
2024/01/28 06:00:11;;;;;;;18.10;9.17;;;;;;;;;;5086602;28;20020;-63
2024/01/28 06:02:36;;;;;;;17.77;8.23;;;;;;;;;;5078333;28;20102;-65
2024/01/28 06:05:02;;;;;;;20.17;7.20;;;;;;;;;;5084628;28;20078;-63
2024/01/28 06:07:27;;;;;;;23.23;7.87;;;;;;;;;;5085173;28;20023;-63
2024/01/28 06:09:52;;;;;;;19.33;7.57;;;;;;;;;;5085738;28;20537;-63
2024/01/28 06:12:18;;;;;;;19.83;6.97;;;;;;;;;;5079276;28;20025;-64
2024/01/28 06:14:44;;;;;;;17.50;7.50;;;;;;;;;;5074797;28;20040;-63
2024/01/28 06:17:09;;;;;;;14.80;6.80;;;;;;;;;;5088106;28;20024;-64
2024/01/28 06:19:34;;;;;;;21.60;7.77;;;;;;;;;;5087059;28;20380;-63
2024/01/28 06:22:02;;;;;;;16.27;7.23;;;;;;;;;;5084259;28;20016;-63
2024/01/28 06:24:29;;;;;;;18.73;7.50;;;;;;;;;;5077082;28;20127;-63
2024/01/28 06:26:54;;;;;;;17.37;6.57;;;;;;;;;;5080362;28;20112;-63
2024/01/28 06:29:19;;;;;;;23.13;8.27;;;;;;;;;;5089514;28;20131;-63
2024/01/28 06:31:46;;;;;;;22.20;6.70;;;;;;;;;;5088873;28;20028;-63
2024/01/28 06:34:11;;;;;;;21.60;7.57;;;;;;;;;;5084861;28;20027;-64
2024/01/28 06:36:36;;;;;;;15.40;6.90;;;;;;;;;;5085258;28;20099;-64
2024/01/28 06:39:01;;;;;;;20.13;7.53;;;;;;;;;;5066481;28;20022;-63
2024/01/28 06:41:27;;;;;;;18.13;7.23;;;;;;;;;;5085738;28;20023;-63
2024/01/28 06:43:52;;;;;;;22.30;7.50;;;;;;;;;;5085451;28;20859;-63
2024/01/28 06:46:19;;;;;;;17.40;7.50;;;;;;;;;;5085228;28;20032;-63
2024/01/28 06:48:44;;;;;;;20.93;7.83;;;;;;;;;;5084472;28;20028;-70
2024/01/28 06:51:09;;;;;;;22.00;8.90;;;;;;;;;;5083929;28;20035;-70
2024/01/28 06:53:36;;;;;;;20.90;8.00;;;;;;;;;;5083567;28;20024;-70
2024/01/28 06:56:01;;;;;;;24.80;8.47;;;;;;;;;;5086346;28;20051;-70
2024/01/28 06:58:26;;;;;;;31.13;9.27;;;;;;;;;;5083946;28;20030;-69
2024/01/28 07:00:51;;;;;;;21.27;8.80;;;;;;;;;;5082225;28;20016;-69
2024/01/28 07:03:18;;;;;;;21.63;7.77;;;;;;;;;;5084524;28;20081;-71
2024/01/28 07:05:44;;;;;;;25.20;8.37;;;;;;;;;;5082237;28;20392;-70
2024/01/28 07:08:09;;;;;;;20.90;8.17;;;;;;;;;;5083316;28;20031;-70
2024/01/28 07:10:34;;;;;;;22.57;8.20;;;;;;;;;;5079139;28;20107;-70
2024/01/28 07:13:03;;;;;;;21.63;8.07;;;;;;;;;;5082289;28;20081;-71
2024/01/28 07:15:29;;;;;;;19.23;8.50;;;;;;;;;;5084558;28;20076;-70
2024/01/28 07:17:54;;;;;;;20.23;9.30;;;;;;;;;;5086736;28;20044;-71
2024/01/28 07:20:19;;;;;;;25.77;9.30;;;;;;;;;;5087198;28;20773;-69
2024/01/28 07:22:44;;;;;;;31.03;10.10;;;;;;;;;;5088067;28;20320;-70
2024/01/28 07:25:10;;;;;;;29.77;10.33;;;;;;;;;;5091873;28;20430;-70
2024/01/28 07:27:35;;;;;;;27.67;10.70;;;;;;;;;;5093369;28;20066;-70
2024/01/28 07:30:00;;;;;;;25.03;9.33;;;;;;;;;;5093856;28;20039;-70
2024/01/28 07:32:25;;;;;;;28.10;10.87;;;;;;;;;;5088545;28;20414;-70
2024/01/28 07:34:51;;;;;;;23.67;10.80;;;;;;;;;;5094454;28;20043;-70
2024/01/28 07:37:16;;;;;;;25.67;10.30;;;;;;;;;;5086523;28;20154;-70
2024/01/28 07:39:41;;;;;;;31.70;10.67;;;;;;;;;;5095044;28;20358;-70
2024/01/28 07:42:06;;;;;;;31.93;11.47;;;;;;;;;;5092662;28;20156;-71
2024/01/28 07:44:32;;;;;;;20.87;9.90;;;;;;;;;;5090675;28;20103;-70
2024/01/28 07:46:57;;;;;;;24.07;10.13;;;;;;;;;;5091567;28;20074;-70
2024/01/28 07:49:23;;;;;;;27.73;9.40;;;;;;;;;;5084401;28;20625;-70
2024/01/28 07:51:49;;;;;;;28.87;10.00;;;;;;;;;;5093489;28;20031;-70
2024/01/28 07:54:14;;;;;;;28.63;9.40;;;;;;;;;;5094211;28;20042;-70
2024/01/28 07:56:39;;;;;;;28.30;9.27;;;;;;;;;;5091985;28;20406;-70
2024/01/28 07:59:04;;;;;;;35.40;10.40;;;;;;;;;;5087673;28;20055;-70
2024/01/28 08:01:30;;;;;;;13.80;6.53;;;;;;;;;;5088809;28;20024;-72
2024/01/28 08:03:59;;;;;;;14.07;5.77;;;;;;;;;;5057673;28;20056;-71
2024/01/28 08:06:25;;;;;;;17.63;5.77;;;;;;;;;;5066241;28;20027;-72
2024/01/28 08:08:50;;;;;;;18.63;6.17;;;;;;;;;;5065505;28;20020;-71
2024/01/28 08:11:16;;;;;;;13.93;6.37;;;;;;;;;;5067951;28;20036;-72
2024/01/28 08:13:41;;;;;;;12.57;5.20;;;;;;;;;;5067494;28;20055;-72
2024/01/28 08:16:06;;;;;;;14.23;4.93;;;;;;;;;;5068692;28;20028;-71
2024/01/28 08:18:32;;;;;;;18.53;4.50;;;;;;;;;;5067584;28;20021;-71
2024/01/28 08:20:57;;;;;;;17.70;4.80;;;;;;;;;;5059790;28;20029;-71
2024/01/28 08:23:23;;;;;;;9.93;4.23;;;;;;;;;;5055389;28;20021;-70
2024/01/28 08:25:48;;;;;;;17.00;4.63;;;;;;;;;;5054919;28;20044;-71
2024/01/28 08:28:13;;;;;;;11.07;4.40;;;;;;;;;;5052011;28;20498;-71
2024/01/28 08:30:39;;;;;;;9.10;2.97;;;;;;;;;;5054832;28;20032;-70
2024/01/28 08:33:04;;;;;;;8.87;3.70;;;;;;;;;;5051538;28;20033;-70
2024/01/28 08:35:31;;;;;;;9.77;3.70;;;;;;;;;;5048017;28;20045;-70
2024/01/28 08:37:56;;;;;;;12.03;3.40;;;;;;;;;;5053632;28;20051;-70
2024/01/28 08:40:22;;;;;;;12.70;3.60;;;;;;;;;;5056292;28;20032;-70
2024/01/28 08:42:47;;;;;;;15.30;3.80;;;;;;;;;;5053215;28;20033;-64
2024/01/28 08:45:12;;;;;;;13.33;3.93;;;;;;;;;;5051879;28;20441;-66
2024/01/28 08:47:38;;;;;;;12.93;3.97;;;;;;;;;;5049359;28;20059;-66
2024/01/28 08:50:03;;;;;;;14.50;4.07;;;;;;;;;;5047143;28;20114;-66
2024/01/28 08:52:28;;;;;;;10.53;3.70;;;;;;;;;;5043970;28;20088;-66
2024/01/28 08:54:54;;;;;;;13.03;4.10;;;;;;;;;;5046945;28;20029;-66
2024/01/28 08:57:20;;;;;;;14.00;4.27;;;;;;;;;;5047632;28;20063;-65
2024/01/28 08:59:45;;;;;;;16.23;4.23;;;;;;;;;;5040941;28;20029;-66
2024/01/28 09:02:11;;;;;;;11.40;3.90;;;;;;;;;;5035917;28;20025;-65
2024/01/28 09:04:36;;;;;;;12.97;3.00;;;;;;;;;;5059454;28;20425;-66
2024/01/28 09:07:02;;;;;;;14.13;3.73;;;;;;;;;;5060129;28;20064;-65
2024/01/28 09:09:28;;;;;;;9.87;3.20;;;;;;;;;;5060892;28;20085;-67
2024/01/28 09:11:54;;;;;;;11.03;3.20;;;;;;;;;;5058947;28;20148;-69
2024/01/28 09:14:19;;;;;;;13.17;4.13;;;;;;;;;;5062791;28;20045;-67
2024/01/28 09:16:45;;;;;;;13.07;3.80;;;;;;;;;;5053757;28;20048;-68
2024/01/28 09:19:10;;;;;;;13.30;3.60;;;;;;;;;;5055071;28;20021;-68
2024/01/28 09:21:35;;;;;;;10.80;3.63;;;;;;;;;;5063177;28;20060;-66
2024/01/28 09:24:01;;;;;;;10.40;3.73;;;;;;;;;;5058807;28;20029;-68
2024/01/28 09:26:26;;;;;;;9.30;3.40;;;;;;;;;;5059729;28;20503;-69
2024/01/28 09:28:52;;;;;;;10.07;4.00;;;;;;;;;;5062898;28;20029;-67
2024/01/28 09:31:17;;;;;;;13.60;3.90;;;;;;;;;;5062276;28;20435;-68
2024/01/28 09:33:43;;;;;;;15.20;3.97;;;;;;;;;;5062844;28;20095;-70
2024/01/28 09:36:08;;;;;;;10.20;4.03;;;;;;;;;;5063926;28;20032;-68
2024/01/28 09:38:33;;;;;;;20.13;4.17;;;;;;;;;;5062361;28;20383;-68
2024/01/28 09:41:10;;;;;;;14.37;4.13;;;;;;;;;;5060858;28;20028;-67
2024/01/28 09:43:39;;;;;;;19.67;4.33;;;;;;;;;;5062051;28;20035;-69
2024/01/28 09:46:05;;;;;;;12.63;4.30;;;;;;;;;;5062673;28;20043;-69
2024/01/28 09:48:30;;;;;;;9.97;3.60;;;;;;;;;;5062823;28;20037;-68
2024/01/28 09:50:55;;;;;;;13.33;4.20;;;;;;;;;;5063355;28;20032;-70
2024/01/28 09:53:20;;;;;;;12.43;3.70;;;;;;;;;;5061944;28;20028;-69
2024/01/28 09:55:46;;;;;;;11.40;3.80;;;;;;;;;;5060832;28;20027;-68
2024/01/28 09:58:11;;;;;;;10.07;3.90;;;;;;;;;;5061296;28;20028;-68
2024/01/28 10:00:37;;;;;;;10.70;3.83;;;;;;;;;;5055763;28;20381;-67
2024/01/28 10:03:03;;;;;;;14.87;4.23;;;;;;;;;;5049815;28;20147;-66
2024/01/28 10:05:28;;;;;;;13.90;4.00;;;;;;;;;;5069378;28;20601;-68
2024/01/28 10:08:03;;;;;;;13.97;4.57;;;;;;;;;;5072327;28;20030;-68
2024/01/28 10:10:29;;;;;;;10.67;3.33;;;;;;;;;;5071200;28;20028;-69
2024/01/28 10:12:57;;;;;;;10.27;3.43;;;;;;;;;;5072431;28;20028;-68
2024/01/28 10:15:23;;;;;;;9.83;2.67;;;;;;;;;;5071154;28;20605;-67
2024/01/28 10:17:48;;;;;;;12.47;3.70;;;;;;;;;;5073133;28;20123;-62
2024/01/28 10:20:15;;;;;;;11.13;4.60;;;;;;;;;;5074186;28;20054;-63
2024/01/28 10:22:40;;;;;;;25.70;7.50;;;;;;;;;;5082231;22;20064;-76
2024/01/28 10:25:07;;;;;;;24.17;6.80;;;;;;;;;;5031887;28;20037;-76
2024/01/28 10:27:32;;;;;;;18.23;5.27;;;;;;;;;;5023716;28;20029;-76
2024/01/28 10:29:57;;;;;;;13.67;4.67;;;;;;;;;;5029404;28;20078;-76
2024/01/28 10:32:22;;;;;;;12.67;3.87;;;;;;;;;;5029839;28;20028;-76
2024/01/28 10:34:47;;;;;;;13.67;4.30;;;;;;;;;;5031475;28;20040;-76
2024/01/28 10:37:14;;;;;;;20.17;3.97;;;;;;;;;;5030922;28;20032;-76
2024/01/28 10:39:40;;;;;;;9.27;3.37;;;;;;;;;;5031867;28;20088;-76
2024/01/28 10:42:09;;;;;;;10.40;4.10;;;;;;;;;;5029130;28;20544;-76
2024/01/28 10:44:36;;;;;;;8.37;4.10;;;;;;;;;;5030855;28;20040;-76
2024/01/28 10:47:01;;;;;;;6.80;3.30;;;;;;;;;;5029733;28;20116;-76
2024/01/28 10:49:31;;;;;;;9.87;3.00;;;;;;;;;;5032255;28;20041;-77
2024/01/28 10:51:57;;;;;;;14.63;3.90;;;;;;;;;;5028438;28;20511;-76
2024/01/28 10:54:23;;;;;;;12.50;3.40;;;;;;;;;;5029330;28;20036;-76
2024/01/28 10:56:50;;;;;;;10.70;3.30;;;;;;;;;;5030146;28;20025;-76
2024/01/28 10:59:15;;;;;;;8.83;3.30;;;;;;;;;;5030093;28;20393;-76
2024/01/28 11:01:41;;;;;;;8.37;2.83;;;;;;;;;;5029726;28;20032;-76
2024/01/28 11:04:06;;;;;;;8.00;2.93;;;;;;;;;;5029495;28;20033;-76
2024/01/28 11:06:32;;;;;;;12.37;3.70;;;;;;;;;;5029235;28;20029;-76
2024/01/28 11:08:58;;;;;;;8.67;2.57;;;;;;;;;;5029868;28;20048;-76
2024/01/28 11:11:23;;;;;;;12.17;4.27;;;;;;;;;;5032568;28;20487;-76
2024/01/28 11:13:48;;;;;;;12.57;3.30;;;;;;;;;;5030849;28;20033;-75
2024/01/28 11:16:15;;;;;;;9.90;3.17;;;;;;;;;;5032656;28;20541;-77
2024/01/28 11:18:40;;;;;;;8.67;2.87;;;;;;;;;;5030063;28;20028;-77
2024/01/28 11:21:12;;;;;;;10.93;3.43;;;;;;;;;;5029931;28;20458;-75
2024/01/28 11:23:42;;;;;;;9.17;2.90;;;;;;;;;;5029290;28;20377;-74
2024/01/28 11:26:11;;;;;;;12.97;3.70;;;;;;;;;;5012249;28;20036;-75
2024/01/28 11:28:36;;;;;;;8.43;3.20;;;;;;;;;;5029667;28;20112;-74
2024/01/28 11:31:01;;;;;;;12.53;3.80;;;;;;;;;;5029072;28;20112;-74
2024/01/28 11:33:33;;;;;;;9.70;3.13;;;;;;;;;;5030338;28;20091;-74
2024/01/28 11:35:59;;;;;;;8.73;3.42;;;;;;;;;;5030114;28;20028;-75
2024/01/28 11:38:26;;;;;;;12.40;3.47;;;;;;;;;;5032738;28;20108;-74
2024/01/28 11:40:55;;;;;;;9.10;3.07;;;;;;;;;;5032349;28;20024;-74
2024/01/28 11:43:21;;;;;;;11.17;3.20;;;;;;;;;;5030049;28;20460;-74
2024/01/28 11:45:46;;;;;;;7.97;2.90;;;;;;;;;;5030887;28;20027;-75
2024/01/28 11:48:12;;;;;;;9.40;3.67;;;;;;;;;;5030120;28;20563;-74
2024/01/28 11:50:39;;;;;;;8.17;2.73;;;;;;;;;;5030211;28;20029;-74
2024/01/28 11:53:05;;;;;;;7.43;2.73;;;;;;;;;;5029843;28;20050;-74
2024/01/28 11:55:31;;;;;;;8.30;2.60;;;;;;;;;;5031077;28;20037;-75
2024/01/28 11:57:56;;;;;;;8.17;2.30;;;;;;;;;;5029168;28;20473;-74
2024/01/28 12:00:21;;;;;;;12.07;3.60;;;;;;;;;;5029693;28;20895;-75
2024/01/28 12:02:46;;;;;;;12.77;2.93;;;;;;;;;;5030812;28;20585;-74
2024/01/28 12:05:12;;;;;;;6.83;2.50;;;;;;;;;;5034883;28;20029;-74
2024/01/28 12:07:38;;;;;;;7.97;2.53;;;;;;;;;;5033486;28;20036;-74
2024/01/28 12:10:05;;;;;;;12.17;2.87;;;;;;;;;;5035381;28;20486;-74
2024/01/28 12:12:34;;;;;;;10.27;2.67;;;;;;;;;;5035072;28;20098;-74
2024/01/28 12:14:59;;;;;;;11.50;2.63;;;;;;;;;;5034385;28;20033;-75
2024/01/28 12:17:25;;;;;;;10.23;3.60;;;;;;;;;;5034772;28;20554;-74
2024/01/28 12:19:51;;;;;;;12.63;3.43;;;;;;;;;;5034369;28;20397;-75
2024/01/28 12:22:16;;;;;;;8.40;3.43;;;;;;;;;;5032914;28;20025;-75
2024/01/28 12:24:47;;;;;;;8.23;2.50;;;;;;;;;;5013791;28;20068;-74
2024/01/28 12:27:14;;;;;;;9.05;2.50;;;;;;;;;;5015149;28;20040;-75
2024/01/28 12:29:40;;;;;;;7.40;2.57;;;;;;;;;;5013414;28;20139;-75
2024/01/28 12:32:06;;;;;;;8.33;2.93;;;;;;;;;;5005849;28;20449;-75
2024/01/28 12:34:31;;;;;;;6.43;2.67;;;;;;;;;;4996261;28;20087;-75
2024/01/28 12:36:57;;;;;;;7.23;2.63;;;;;;;;;;4996577;28;20467;-75
2024/01/28 12:39:24;;;;;;;11.00;3.07;;;;;;;;;;4997361;28;20030;-75
2024/01/28 12:41:49;;;;;;;6.73;2.40;;;;;;;;;;4997730;28;20049;-73
2024/01/28 12:44:14;;;;;;;10.00;2.43;;;;;;;;;;4996990;28;20468;-72
2024/01/28 12:46:39;;;;;;;7.90;2.70;;;;;;;;;;4998151;28;20398;-72
2024/01/28 12:49:05;;;;;;;7.30;2.67;;;;;;;;;;4997997;28;20116;-73
2024/01/28 12:51:30;;;;;;;9.30;2.83;;;;;;;;;;4997540;28;20036;-73
2024/01/28 12:53:55;;;;;;;7.23;2.80;;;;;;;;;;4996477;28;20056;-73
2024/01/28 12:56:21;;;;;;;7.53;2.97;;;;;;;;;;4997019;28;20025;-73
2024/01/28 12:58:46;;;;;;;6.20;2.47;;;;;;;;;;4996898;28;20486;-73
2024/01/28 13:01:11;;;;;;;5.67;2.37;;;;;;;;;;4997440;28;20032;-74
2024/01/28 13:03:37;;;;;;;12.60;2.93;;;;;;;;;;4996386;28;20050;-72
2024/01/28 13:06:04;;;;;;;6.53;2.50;;;;;;;;;;4998326;28;21320;-72
2024/01/28 13:08:30;;;;;;;6.77;2.47;;;;;;;;;;4998271;28;20034;-73
2024/01/28 13:11:00;;;;;;;10.50;2.80;;;;;;;;;;4999090;28;20025;-73
2024/01/28 13:13:25;;;;;;;9.73;2.30;;;;;;;;;;4998023;28;20133;-73
2024/01/28 13:15:51;;;;;;;9.33;2.53;;;;;;;;;;4996254;28;20952;-73
2024/01/28 13:18:16;;;;;;;8.40;2.90;;;;;;;;;;4997265;28;20030;-73
2024/01/28 13:20:41;;;;;;;9.83;2.10;;;;;;;;;;4996517;28;20470;-73
2024/01/28 13:23:07;;;;;;;10.87;2.70;;;;;;;;;;5004601;28;20058;-72
2024/01/28 13:25:32;;;;;;;7.93;2.50;;;;;;;;;;5008032;28;20041;-73
2024/01/28 13:27:57;;;;;;;6.57;2.10;;;;;;;;;;5013909;28;20468;-73
2024/01/28 13:30:22;;;;;;;7.03;2.40;;;;;;;;;;5008102;28;20038;-73
2024/01/28 13:32:48;;;;;;;5.80;1.90;;;;;;;;;;5017006;28;20049;-73
2024/01/28 13:35:13;;;;;;;9.73;2.17;;;;;;;;;;5017359;28;20060;-73
2024/01/28 13:37:39;;;;;;;11.43;2.90;;;;;;;;;;5013384;28;20039;-74
2024/01/28 13:40:05;;;;;;;8.17;2.60;;;;;;;;;;5013627;28;20052;-74
2024/01/28 13:42:31;;;;;;;7.57;2.70;;;;;;;;;;5014718;28;20028;-74
2024/01/28 13:44:56;;;;;;;6.63;2.57;;;;;;;;;;5014261;28;20030;-73
2024/01/28 13:47:22;;;;;;;6.57;2.53;;;;;;;;;;5012599;28;20587;-72
2024/01/28 13:49:47;;;;;;;6.97;2.37;;;;;;;;;;5006671;28;20128;-73
2024/01/28 13:52:13;;;;;;;7.60;2.40;;;;;;;;;;5011741;28;20037;-74
2024/01/28 13:54:38;;;;;;;7.13;2.40;;;;;;;;;;5017652;28;20035;-75
2024/01/28 13:57:03;;;;;;;8.07;2.40;;;;;;;;;;5012940;28;20539;-75
2024/01/28 13:59:29;;;;;;;7.83;2.50;;;;;;;;;;5008989;28;21283;-74
2024/01/28 14:01:54;;;;;;;8.70;2.60;;;;;;;;;;5012488;28;20367;-75
2024/01/28 14:04:20;;;;;;;10.37;2.30;;;;;;;;;;5007901;28;20029;-75
2024/01/28 14:06:45;;;;;;;6.70;2.70;;;;;;;;;;5013218;28;20033;-75
2024/01/28 14:09:11;;;;;;;6.97;2.20;;;;;;;;;;4996427;28;20029;-74
2024/01/28 14:11:36;;;;;;;6.93;2.27;;;;;;;;;;5012715;28;20086;-75
2024/01/28 14:14:01;;;;;;;7.13;2.30;;;;;;;;;;4976358;28;20112;-75
2024/01/28 14:16:27;;;;;;;8.37;2.20;;;;;;;;;;5011643;28;20071;-75